sensor_id;sensor_type;location;lat;lon;timestamp;temperature;humidity
35796;DHT22;21916;52.428;13.302;2022-09-28T00:00:13;8.40;99.90
35796;DHT22;21916;52.428;13.302;2022-09-28T00:02:42;8.40;99.90
35796;DHT22;21916;52.428;13.302;2022-09-28T00:05:08;8.40;99.90
35796;DHT22;21916;52.428;13.302;2022-09-28T00:07:37;8.40;99.90
35796;DHT22;21916;52.428;13.302;2022-09-28T00:10:04;8.40;99.90
35796;DHT22;21916;52.428;13.302;2022-09-28T00:12:31;8.40;99.90
35796;DHT22;21916;52.428;13.302;2022-09-28T00:14:58;8.40;99.90
35796;DHT22;21916;52.428;13.302;2022-09-28T00:17:24;8.40;99.90
35796;DHT22;21916;52.428;13.302;2022-09-28T00:19:51;8.40;99.90
35796;DHT22;21916;52.428;13.302;2022-09-28T00:22:17;8.50;99.90
35796;DHT22;21916;52.428;13.302;2022-09-28T00:24:43;8.50;99.90
35796;DHT22;21916;52.428;13.302;2022-09-28T00:27:09;8.40;99.90
35796;DHT22;21916;52.428;13.302;2022-09-28T00:29:36;8.30;99.90
35796;DHT22;21916;52.428;13.302;2022-09-28T00:32:09;8.30;99.90
35796;DHT22;21916;52.428;13.302;2022-09-28T00:34:37;8.40;99.90
35796;DHT22;21916;52.428;13.302;2022-09-28T00:37:04;8.30;99.90
35796;DHT22;21916;52.428;13.302;2022-09-28T00:39:31;8.30;99.90
35796;DHT22;21916;52.428;13.302;2022-09-28T00:41:57;8.30;99.90
35796;DHT22;21916;52.428;13.302;2022-09-28T00:47:42;8.30;99.90
35796;DHT22;21916;52.428;13.302;2022-09-28T00:50:30;8.40;99.90
35796;DHT22;21916;52.428;13.302;2022-09-28T00:55:53;8.40;99.90
35796;DHT22;21916;52.428;13.302;2022-09-28T00:58:24;8.40;99.90
35796;DHT22;21916;52.428;13.302;2022-09-28T01:00:55;8.40;99.90
35796;DHT22;21916;52.428;13.302;2022-09-28T01:03:21;8.50;99.90
35796;DHT22;21916;52.428;13.302;2022-09-28T01:05:49;8.40;99.90
35796;DHT22;21916;52.428;13.302;2022-09-28T01:08:18;8.50;99.90
35796;DHT22;21916;52.428;13.302;2022-09-28T01:10:46;8.50;99.90
35796;DHT22;21916;52.428;13.302;2022-09-28T01:13:20;8.50;99.90
35796;DHT22;21916;52.428;13.302;2022-09-28T01:18:39;8.40;99.90
35796;DHT22;21916;52.428;13.302;2022-09-28T01:21:20;8.40;99.90
35796;DHT22;21916;52.428;13.302;2022-09-28T01:26:58;8.40;99.90
35796;DHT22;21916;52.428;13.302;2022-09-28T01:34:58;8.50;99.90
35796;DHT22;21916;52.428;13.302;2022-09-28T01:37:50;8.40;99.90
35796;DHT22;21916;52.428;13.302;2022-09-28T01:40:19;8.50;99.90
35796;DHT22;21916;52.428;13.302;2022-09-28T01:42:49;8.40;99.90
35796;DHT22;21916;52.428;13.302;2022-09-28T01:45:41;8.40;99.90
35796;DHT22;21916;52.428;13.302;2022-09-28T01:48:10;8.50;99.90
35796;DHT22;21916;52.428;13.302;2022-09-28T01:50:40;8.40;99.90
35796;DHT22;21916;52.428;13.302;2022-09-28T01:53:20;8.40;99.90
35796;DHT22;21916;52.428;13.302;2022-09-28T01:55:52;8.50;99.90
35796;DHT22;21916;52.428;13.302;2022-09-28T01:58:43;8.40;99.90
35796;DHT22;21916;52.428;13.302;2022-09-28T02:01:20;8.40;99.90
35796;DHT22;21916;52.428;13.302;2022-09-28T02:04:01;8.30;99.90
35796;DHT22;21916;52.428;13.302;2022-09-28T02:06:32;8.40;99.90
35796;DHT22;21916;52.428;13.302;2022-09-28T02:10:06;8.40;99.90
35796;DHT22;21916;52.428;13.302;2022-09-28T02:12:19;8.40;99.90
35796;DHT22;21916;52.428;13.302;2022-09-28T02:14:48;8.40;99.90
35796;DHT22;21916;52.428;13.302;2022-09-28T02:17:20;8.40;99.90
35796;DHT22;21916;52.428;13.302;2022-09-28T02:19:47;8.50;99.90
35796;DHT22;21916;52.428;13.302;2022-09-28T02:22:31;8.50;99.90
35796;DHT22;21916;52.428;13.302;2022-09-28T02:30:20;8.40;99.90
35796;DHT22;21916;52.428;13.302;2022-09-28T02:32:49;8.40;99.90
35796;DHT22;21916;52.428;13.302;2022-09-28T02:35:19;8.30;99.90
35796;DHT22;21916;52.428;13.302;2022-09-28T02:37:45;8.40;99.90
35796;DHT22;21916;52.428;13.302;2022-09-28T02:40:24;8.40;99.90
35796;DHT22;21916;52.428;13.302;2022-09-28T02:46:35;8.30;99.90
35796;DHT22;21916;52.428;13.302;2022-09-28T02:49:40;8.30;99.90
35796;DHT22;21916;52.428;13.302;2022-09-28T02:52:32;8.30;99.90
35796;DHT22;21916;52.428;13.302;2022-09-28T02:58:17;8.40;99.90
35796;DHT22;21916;52.428;13.302;2022-09-28T03:01:20;8.50;99.90
35796;DHT22;21916;52.428;13.302;2022-09-28T03:03:57;8.40;99.90
35796;DHT22;21916;52.428;13.302;2022-09-28T03:06:42;8.30;99.90
35796;DHT22;21916;52.428;13.302;2022-09-28T03:09:21;8.30;99.90
35796;DHT22;21916;52.428;13.302;2022-09-28T03:12:02;8.30;99.90
35796;DHT22;21916;52.428;13.302;2022-09-28T03:14:35;8.30;99.90
35796;DHT22;21916;52.428;13.302;2022-09-28T03:17:01;8.20;99.90
35796;DHT22;21916;52.428;13.302;2022-09-28T03:19:30;8.20;99.90
35796;DHT22;21916;52.428;13.302;2022-09-28T03:21:59;8.20;99.90
35796;DHT22;21916;52.428;13.302;2022-09-28T03:24:25;8.20;99.90
35796;DHT22;21916;52.428;13.302;2022-09-28T03:26:51;8.20;99.90
35796;DHT22;21916;52.428;13.302;2022-09-28T03:29:17;8.10;99.90
35796;DHT22;21916;52.428;13.302;2022-09-28T03:31:49;8.00;99.90
35796;DHT22;21916;52.428;13.302;2022-09-28T03:34:15;7.90;99.90
35796;DHT22;21916;52.428;13.302;2022-09-28T03:36:41;7.90;99.90
35796;DHT22;21916;52.428;13.302;2022-09-28T03:39:09;8.00;99.90
35796;DHT22;21916;52.428;13.302;2022-09-28T03:41:36;7.80;99.90
35796;DHT22;21916;52.428;13.302;2022-09-28T03:44:04;7.70;99.90
35796;DHT22;21916;52.428;13.302;2022-09-28T03:46:31;7.70;99.90
35796;DHT22;21916;52.428;13.302;2022-09-28T03:49:03;7.60;99.90
35796;DHT22;21916;52.428;13.302;2022-09-28T03:51:29;7.70;99.90
35796;DHT22;21916;52.428;13.302;2022-09-28T03:53:56;7.60;99.90
35796;DHT22;21916;52.428;13.302;2022-09-28T03:56:22;7.60;99.90
35796;DHT22;21916;52.428;13.302;2022-09-28T03:58:47;7.60;99.90
35796;DHT22;21916;52.428;13.302;2022-09-28T04:01:15;7.60;99.90
35796;DHT22;21916;52.428;13.302;2022-09-28T04:03:44;7.70;99.90
35796;DHT22;21916;52.428;13.302;2022-09-28T04:06:11;7.60;99.90
35796;DHT22;21916;52.428;13.302;2022-09-28T04:08:40;7.60;99.90
35796;DHT22;21916;52.428;13.302;2022-09-28T04:11:07;7.60;99.90
35796;DHT22;21916;52.428;13.302;2022-09-28T04:13:33;7.50;99.90
35796;DHT22;21916;52.428;13.302;2022-09-28T04:16:00;7.60;99.90
35796;DHT22;21916;52.428;13.302;2022-09-28T04:18:28;7.60;99.90
35796;DHT22;21916;52.428;13.302;2022-09-28T04:21:16;7.50;99.90
35796;DHT22;21916;52.428;13.302;2022-09-28T04:23:50;7.60;99.90
35796;DHT22;21916;52.428;13.302;2022-09-28T04:26:22;7.60;99.90
35796;DHT22;21916;52.428;13.302;2022-09-28T04:28:48;7.60;99.90
35796;DHT22;21916;52.428;13.302;2022-09-28T04:31:38;7.70;99.90
35796;DHT22;21916;52.428;13.302;2022-09-28T04:34:04;7.80;99.90
35796;DHT22;21916;52.428;13.302;2022-09-28T04:36:40;7.80;99.90
35796;DHT22;21916;52.428;13.302;2022-09-28T04:39:05;7.80;99.90
35796;DHT22;21916;52.428;13.302;2022-09-28T04:41:50;7.70;99.90
35796;DHT22;21916;52.428;13.302;2022-09-28T04:44:17;7.80;99.90
35796;DHT22;21916;52.428;13.302;2022-09-28T04:46:45;7.80;99.90
35796;DHT22;21916;52.428;13.302;2022-09-28T04:49:29;7.90;99.90
35796;DHT22;21916;52.428;13.302;2022-09-28T04:52:12;7.90;99.90
35796;DHT22;21916;52.428;13.302;2022-09-28T04:54:38;7.90;99.90
35796;DHT22;21916;52.428;13.302;2022-09-28T04:57:05;8.00;99.90
35796;DHT22;21916;52.428;13.302;2022-09-28T04:59:31;7.80;99.90
35796;DHT22;21916;52.428;13.302;2022-09-28T05:01:59;7.80;99.90
35796;DHT22;21916;52.428;13.302;2022-09-28T05:04:43;7.90;99.90
35796;DHT22;21916;52.428;13.302;2022-09-28T05:07:30;8.00;99.90
35796;DHT22;21916;52.428;13.302;2022-09-28T05:10:01;8.00;99.90
35796;DHT22;21916;52.428;13.302;2022-09-28T05:12:31;7.90;99.90
35796;DHT22;21916;52.428;13.302;2022-09-28T05:14:58;8.00;99.90
35796;DHT22;21916;52.428;13.302;2022-09-28T05:17:26;8.00;99.90
35796;DHT22;21916;52.428;13.302;2022-09-28T05:20:10;8.00;99.90
35796;DHT22;21916;52.428;13.302;2022-09-28T05:22:37;8.00;99.90
35796;DHT22;21916;52.428;13.302;2022-09-28T05:25:04;8.10;99.90
35796;DHT22;21916;52.428;13.302;2022-09-28T05:27:40;8.20;99.90
35796;DHT22;21916;52.428;13.302;2022-09-28T05:30:21;8.20;99.90
35796;DHT22;21916;52.428;13.302;2022-09-28T05:33:14;8.20;99.90
35796;DHT22;21916;52.428;13.302;2022-09-28T05:35:43;8.10;99.90
35796;DHT22;21916;52.428;13.302;2022-09-28T05:38:09;8.20;99.90
35796;DHT22;21916;52.428;13.302;2022-09-28T05:40:35;8.10;99.90
35796;DHT22;21916;52.428;13.302;2022-09-28T05:43:01;8.20;99.90
35796;DHT22;21916;52.428;13.302;2022-09-28T05:45:29;8.30;99.90
35796;DHT22;21916;52.428;13.302;2022-09-28T05:47:57;8.40;99.90
35796;DHT22;21916;52.428;13.302;2022-09-28T05:50:24;8.40;99.90
35796;DHT22;21916;52.428;13.302;2022-09-28T05:52:57;8.30;99.90
35796;DHT22;21916;52.428;13.302;2022-09-28T05:55:24;8.40;99.90
35796;DHT22;21916;52.428;13.302;2022-09-28T05:57:50;8.50;99.90
35796;DHT22;21916;52.428;13.302;2022-09-28T06:00:16;8.60;99.90
35796;DHT22;21916;52.428;13.302;2022-09-28T06:03:02;8.70;99.90
35796;DHT22;21916;52.428;13.302;2022-09-28T06:05:28;8.80;99.90
35796;DHT22;21916;52.428;13.302;2022-09-28T06:07:57;8.80;99.90
35796;DHT22;21916;52.428;13.302;2022-09-28T06:10:24;8.90;99.90
35796;DHT22;21916;52.428;13.302;2022-09-28T06:12:55;8.90;99.90
35796;DHT22;21916;52.428;13.302;2022-09-28T06:15:23;9.00;99.90
35796;DHT22;21916;52.428;13.302;2022-09-28T06:20:42;9.10;99.90
35796;DHT22;21916;52.428;13.302;2022-09-28T06:23:27;9.10;99.90
35796;DHT22;21916;52.428;13.302;2022-09-28T06:25:53;9.20;99.90
35796;DHT22;21916;52.428;13.302;2022-09-28T06:28:19;9.20;99.90
35796;DHT22;21916;52.428;13.302;2022-09-28T06:30:45;9.10;99.90
35796;DHT22;21916;52.428;13.302;2022-09-28T06:33:15;9.20;99.90
35796;DHT22;21916;52.428;13.302;2022-09-28T06:35:41;9.20;99.90
35796;DHT22;21916;52.428;13.302;2022-09-28T06:38:07;9.20;99.90
35796;DHT22;21916;52.428;13.302;2022-09-28T06:40:37;9.20;99.90
35796;DHT22;21916;52.428;13.302;2022-09-28T06:43:09;9.30;99.90
35796;DHT22;21916;52.428;13.302;2022-09-28T06:45:54;9.40;99.90
35796;DHT22;21916;52.428;13.302;2022-09-28T06:48:40;9.50;99.90
35796;DHT22;21916;52.428;13.302;2022-09-28T06:51:11;9.60;99.90
35796;DHT22;21916;52.428;13.302;2022-09-28T06:54:06;9.70;99.90
35796;DHT22;21916;52.428;13.302;2022-09-28T06:56:57;9.90;99.90
35796;DHT22;21916;52.428;13.302;2022-09-28T06:59:23;10.10;99.90
35796;DHT22;21916;52.428;13.302;2022-09-28T07:01:50;10.30;99.90
35796;DHT22;21916;52.428;13.302;2022-09-28T07:04:36;10.20;99.90
35796;DHT22;21916;52.428;13.302;2022-09-28T07:07:33;10.20;99.90
35796;DHT22;21916;52.428;13.302;2022-09-28T07:10:08;10.20;99.90
35796;DHT22;21916;52.428;13.302;2022-09-28T07:12:45;10.30;99.90
35796;DHT22;21916;52.428;13.302;2022-09-28T07:15:24;10.50;99.90
35796;DHT22;21916;52.428;13.302;2022-09-28T07:17:58;10.60;99.90
35796;DHT22;21916;52.428;13.302;2022-09-28T07:20:25;10.70;99.90
35796;DHT22;21916;52.428;13.302;2022-09-28T07:22:56;10.80;99.90
35796;DHT22;21916;52.428;13.302;2022-09-28T07:25:23;10.90;99.90
35796;DHT22;21916;52.428;13.302;2022-09-28T07:28:09;10.90;99.90
35796;DHT22;21916;52.428;13.302;2022-09-28T07:31:01;11.10;99.90
35796;DHT22;21916;52.428;13.302;2022-09-28T07:33:52;11.00;99.90
35796;DHT22;21916;52.428;13.302;2022-09-28T07:36:29;11.20;99.90
35796;DHT22;21916;52.428;13.302;2022-09-28T07:39:04;11.20;99.90
35796;DHT22;21916;52.428;13.302;2022-09-28T07:41:30;11.30;99.90
35796;DHT22;21916;52.428;13.302;2022-09-28T07:44:02;11.20;99.90
35796;DHT22;21916;52.428;13.302;2022-09-28T07:46:33;11.20;99.90
35796;DHT22;21916;52.428;13.302;2022-09-28T07:49:04;11.20;99.90
35796;DHT22;21916;52.428;13.302;2022-09-28T07:51:48;11.30;99.90
35796;DHT22;21916;52.428;13.302;2022-09-28T07:54:24;11.30;99.90
35796;DHT22;21916;52.428;13.302;2022-09-28T07:57:12;11.30;99.90
35796;DHT22;21916;52.428;13.302;2022-09-28T07:59:50;11.40;99.90
35796;DHT22;21916;52.428;13.302;2022-09-28T08:02:36;11.50;99.90
35796;DHT22;21916;52.428;13.302;2022-09-28T08:05:03;11.40;99.90
35796;DHT22;21916;52.428;13.302;2022-09-28T08:07:30;11.50;99.90
35796;DHT22;21916;52.428;13.302;2022-09-28T08:10:02;11.50;99.90
35796;DHT22;21916;52.428;13.302;2022-09-28T08:12:28;11.50;99.90
35796;DHT22;21916;52.428;13.302;2022-09-28T08:15:27;11.50;99.90
35796;DHT22;21916;52.428;13.302;2022-09-28T08:18:17;11.40;99.90
35796;DHT22;21916;52.428;13.302;2022-09-28T08:20:43;11.60;99.90
35796;DHT22;21916;52.428;13.302;2022-09-28T08:23:28;11.80;99.90
35796;DHT22;21916;52.428;13.302;2022-09-28T08:25:54;12.00;99.90
35796;DHT22;21916;52.428;13.302;2022-09-28T08:28:22;12.10;99.90
35796;DHT22;21916;52.428;13.302;2022-09-28T08:30:53;12.20;99.90
35796;DHT22;21916;52.428;13.302;2022-09-28T08:33:25;12.40;99.90
35796;DHT22;21916;52.428;13.302;2022-09-28T08:36:14;12.60;99.90
35796;DHT22;21916;52.428;13.302;2022-09-28T08:39:06;12.30;99.90
35796;DHT22;21916;52.428;13.302;2022-09-28T08:45:09;12.30;99.90
35796;DHT22;21916;52.428;13.302;2022-09-28T08:48:18;12.40;99.90
35796;DHT22;21916;52.428;13.302;2022-09-28T08:55:14;12.90;99.90
35796;DHT22;21916;52.428;13.302;2022-09-28T09:00:47;13.30;99.90
35796;DHT22;21916;52.428;13.302;2022-09-28T09:03:19;13.50;99.90
35796;DHT22;21916;52.428;13.302;2022-09-28T09:11:32;13.70;99.90
35796;DHT22;21916;52.428;13.302;2022-09-28T09:22:38;13.80;99.90
35796;DHT22;21916;52.428;13.302;2022-09-28T09:30:31;14.80;99.90
35796;DHT22;21916;52.428;13.302;2022-09-28T09:36:54;15.30;99.90
35796;DHT22;21916;52.428;13.302;2022-09-28T09:49:48;14.20;99.90
35796;DHT22;21916;52.428;13.302;2022-09-28T09:52:37;14.30;99.90
35796;DHT22;21916;52.428;13.302;2022-09-28T09:55:26;14.40;99.90
35796;DHT22;21916;52.428;13.302;2022-09-28T10:00:49;14.20;99.90
35796;DHT22;21916;52.428;13.302;2022-09-28T10:03:42;14.30;99.90
35796;DHT22;21916;52.428;13.302;2022-09-28T10:06:34;14.20;99.90
35796;DHT22;21916;52.428;13.302;2022-09-28T10:09:05;14.10;99.90
35796;DHT22;21916;52.428;13.302;2022-09-28T10:11:40;14.00;99.90
35796;DHT22;21916;52.428;13.302;2022-09-28T10:14:17;14.00;99.90
35796;DHT22;21916;52.428;13.302;2022-09-28T10:16:54;14.10;99.90
35796;DHT22;21916;52.428;13.302;2022-09-28T10:19:41;13.80;99.90
35796;DHT22;21916;52.428;13.302;2022-09-28T10:22:27;13.70;99.90
35796;DHT22;21916;52.428;13.302;2022-09-28T10:24:55;13.50;99.90
35796;DHT22;21916;52.428;13.302;2022-09-28T10:27:32;13.20;99.90
35796;DHT22;21916;52.428;13.302;2022-09-28T10:30:18;13.20;99.90
35796;DHT22;21916;52.428;13.302;2022-09-28T10:32:47;13.20;99.90
35796;DHT22;21916;52.428;13.302;2022-09-28T10:35:27;13.40;99.90
35796;DHT22;21916;52.428;13.302;2022-09-28T10:38:11;13.20;99.90
35796;DHT22;21916;52.428;13.302;2022-09-28T10:40:54;12.90;99.90
35796;DHT22;21916;52.428;13.302;2022-09-28T10:43:53;12.70;99.90
35796;DHT22;21916;52.428;13.302;2022-09-28T10:46:33;12.40;99.90
35796;DHT22;21916;52.428;13.302;2022-09-28T10:49:03;12.30;99.90
35796;DHT22;21916;52.428;13.302;2022-09-28T10:51:52;12.10;99.90
35796;DHT22;21916;52.428;13.302;2022-09-28T10:54:30;12.10;99.90
35796;DHT22;21916;52.428;13.302;2022-09-28T10:56:59;12.10;99.90
35796;DHT22;21916;52.428;13.302;2022-09-28T10:59:39;12.00;99.90
35796;DHT22;21916;52.428;13.302;2022-09-28T11:02:34;11.90;99.90
35796;DHT22;21916;52.428;13.302;2022-09-28T11:05:06;11.90;99.90
35796;DHT22;21916;52.428;13.302;2022-09-28T11:07:46;11.80;99.90
35796;DHT22;21916;52.428;13.302;2022-09-28T11:10:20;11.60;99.90
35796;DHT22;21916;52.428;13.302;2022-09-28T11:12:48;11.60;99.90
35796;DHT22;21916;52.428;13.302;2022-09-28T11:15:32;11.70;99.90
35796;DHT22;21916;52.428;13.302;2022-09-28T11:18:28;11.80;99.90
35796;DHT22;21916;52.428;13.302;2022-09-28T11:21:13;11.90;99.90
35796;DHT22;21916;52.428;13.302;2022-09-28T11:24:00;11.80;99.90
35796;DHT22;21916;52.428;13.302;2022-09-28T11:26:35;11.80;99.90
35796;DHT22;21916;52.428;13.302;2022-09-28T11:29:03;11.70;99.90
35796;DHT22;21916;52.428;13.302;2022-09-28T11:31:41;11.60;99.90
35796;DHT22;21916;52.428;13.302;2022-09-28T11:34:21;11.40;99.90
35796;DHT22;21916;52.428;13.302;2022-09-28T11:40:00;11.30;99.90
35796;DHT22;21916;52.428;13.302;2022-09-28T11:48:15;11.50;99.90
35796;DHT22;21916;52.428;13.302;2022-09-28T11:50:49;11.60;99.90
35796;DHT22;21916;52.428;13.302;2022-09-28T11:56:30;11.50;99.90
35796;DHT22;21916;52.428;13.302;2022-09-28T12:02:12;11.40;99.90
35796;DHT22;21916;52.428;13.302;2022-09-28T12:07:20;11.30;99.90
35796;DHT22;21916;52.428;13.302;2022-09-28T12:12:34;11.60;99.90
35796;DHT22;21916;52.428;13.302;2022-09-28T12:15:24;11.60;99.90
35796;DHT22;21916;52.428;13.302;2022-09-28T12:18:07;11.70;99.90
35796;DHT22;21916;52.428;13.302;2022-09-28T12:20:45;11.70;99.90
35796;DHT22;21916;52.428;13.302;2022-09-28T12:23:27;11.60;99.90
35796;DHT22;21916;52.428;13.302;2022-09-28T12:25:59;11.60;99.90
35796;DHT22;21916;52.428;13.302;2022-09-28T12:28:49;11.60;99.90
35796;DHT22;21916;52.428;13.302;2022-09-28T12:31:28;11.70;99.90
35796;DHT22;21916;52.428;13.302;2022-09-28T12:33:56;11.60;99.90
35796;DHT22;21916;52.428;13.302;2022-09-28T12:36:40;11.50;99.90
35796;DHT22;21916;52.428;13.302;2022-09-28T12:54:05;11.80;99.90
35796;DHT22;21916;52.428;13.302;2022-09-28T12:56:40;11.50;99.90
35796;DHT22;21916;52.428;13.302;2022-09-28T13:06:55;12.00;99.90
35796;DHT22;21916;52.428;13.302;2022-09-28T13:09:27;12.30;99.90
35796;DHT22;21916;52.428;13.302;2022-09-28T13:23:10;13.50;99.90
35796;DHT22;21916;52.428;13.302;2022-09-28T13:25:42;13.90;99.90
35796;DHT22;21916;52.428;13.302;2022-09-28T13:28:11;14.40;99.90
35796;DHT22;21916;52.428;13.302;2022-09-28T13:30:39;14.70;99.90
35796;DHT22;21916;52.428;13.302;2022-09-28T13:33:14;14.90;99.90
35796;DHT22;21916;52.428;13.302;2022-09-28T13:35:41;14.90;99.90
35796;DHT22;21916;52.428;13.302;2022-09-28T13:52:34;16.70;99.90
35796;DHT22;21916;52.428;13.302;2022-09-28T13:58:10;17.60;99.90
35796;DHT22;21916;52.428;13.302;2022-09-28T14:08:43;18.60;99.50
35796;DHT22;21916;52.428;13.302;2022-09-28T14:16:40;20.50;96.20
35796;DHT22;21916;52.428;13.302;2022-09-28T14:22:08;20.70;94.80
35796;DHT22;21916;52.428;13.302;2022-09-28T14:32:40;20.80;94.60
35796;DHT22;21916;52.428;13.302;2022-09-28T14:35:26;20.00;94.70
35796;DHT22;21916;52.428;13.302;2022-09-28T14:38:04;19.00;95.10
35796;DHT22;21916;52.428;13.302;2022-09-28T14:54:00;18.80;96.30
35796;DHT22;21916;52.428;13.302;2022-09-28T14:59:31;20.50;94.70
35796;DHT22;21916;52.428;13.302;2022-09-28T15:04:53;17.80;96.70
35796;DHT22;21916;52.428;13.302;2022-09-28T15:07:28;17.60;97.40
35796;DHT22;21916;52.428;13.302;2022-09-28T15:09:59;17.10;98.00
35796;DHT22;21916;52.428;13.302;2022-09-28T15:12:30;16.80;99.10
35796;DHT22;21916;52.428;13.302;2022-09-28T15:15:01;15.80;99.90
35796;DHT22;21916;52.428;13.302;2022-09-28T15:17:36;14.90;99.90
35796;DHT22;21916;52.428;13.302;2022-09-28T15:20:29;14.30;99.90
35796;DHT22;21916;52.428;13.302;2022-09-28T15:22:58;13.90;99.90
35796;DHT22;21916;52.428;13.302;2022-09-28T15:25:33;13.50;99.90
35796;DHT22;21916;52.428;13.302;2022-09-28T15:28:17;13.60;99.90
35796;DHT22;21916;52.428;13.302;2022-09-28T15:30:43;13.80;99.90
35796;DHT22;21916;52.428;13.302;2022-09-28T15:33:30;13.90;99.90
35796;DHT22;21916;52.428;13.302;2022-09-28T15:36:21;14.10;99.90
35796;DHT22;21916;52.428;13.302;2022-09-28T15:41:36;14.00;99.90
35796;DHT22;21916;52.428;13.302;2022-09-28T15:46:40;13.40;99.90
35796;DHT22;21916;52.428;13.302;2022-09-28T15:49:22;13.30;99.90
35796;DHT22;21916;52.428;13.302;2022-09-28T15:51:53;13.20;99.90
35796;DHT22;21916;52.428;13.302;2022-09-28T15:54:22;13.00;99.90
35796;DHT22;21916;52.428;13.302;2022-09-28T16:04:52;12.20;99.90
35796;DHT22;21916;52.428;13.302;2022-09-28T16:07:24;12.10;99.90
35796;DHT22;21916;52.428;13.302;2022-09-28T16:12:29;11.70;99.90
35796;DHT22;21916;52.428;13.302;2022-09-28T16:14:58;11.70;99.90
35796;DHT22;21916;52.428;13.302;2022-09-28T16:17:30;11.70;99.90
35796;DHT22;21916;52.428;13.302;2022-09-28T16:20:18;11.60;99.90
35796;DHT22;21916;52.428;13.302;2022-09-28T16:22:47;11.60;99.90
35796;DHT22;21916;52.428;13.302;2022-09-28T16:25:22;11.40;99.90
35796;DHT22;21916;52.428;13.302;2022-09-28T16:27:50;11.30;99.90
35796;DHT22;21916;52.428;13.302;2022-09-28T16:30:23;11.30;99.90
35796;DHT22;21916;52.428;13.302;2022-09-28T16:32:56;11.20;99.90
35796;DHT22;21916;52.428;13.302;2022-09-28T16:35:26;11.20;99.90
35796;DHT22;21916;52.428;13.302;2022-09-28T16:37:59;11.10;99.90
35796;DHT22;21916;52.428;13.302;2022-09-28T16:40:26;10.90;99.90
35796;DHT22;21916;52.428;13.302;2022-09-28T16:42:55;10.90;99.90
35796;DHT22;21916;52.428;13.302;2022-09-28T16:45:23;10.90;99.90
35796;DHT22;21916;52.428;13.302;2022-09-28T16:47:50;10.80;99.90
35796;DHT22;21916;52.428;13.302;2022-09-28T16:50:19;10.80;99.90
35796;DHT22;21916;52.428;13.302;2022-09-28T16:52:55;10.70;99.90
35796;DHT22;21916;52.428;13.302;2022-09-28T16:55:40;10.60;99.90
35796;DHT22;21916;52.428;13.302;2022-09-28T16:58:12;10.50;99.90
35796;DHT22;21916;52.428;13.302;2022-09-28T17:00:38;10.50;99.90
35796;DHT22;21916;52.428;13.302;2022-09-28T17:03:15;10.40;99.90
35796;DHT22;21916;52.428;13.302;2022-09-28T17:05:43;10.30;99.90
35796;DHT22;21916;52.428;13.302;2022-09-28T17:08:16;10.20;99.90
35796;DHT22;21916;52.428;13.302;2022-09-28T17:10:59;10.20;99.90
35796;DHT22;21916;52.428;13.302;2022-09-28T17:13:30;10.10;99.90
35796;DHT22;21916;52.428;13.302;2022-09-28T17:16:05;10.20;99.90
35796;DHT22;21916;52.428;13.302;2022-09-28T17:18:35;10.10;99.90
35796;DHT22;21916;52.428;13.302;2022-09-28T17:21:08;10.10;99.90
35796;DHT22;21916;52.428;13.302;2022-09-28T17:23:41;10.20;99.90
35796;DHT22;21916;52.428;13.302;2022-09-28T17:26:21;10.20;99.90
35796;DHT22;21916;52.428;13.302;2022-09-28T17:28:57;10.20;99.90
35796;DHT22;21916;52.428;13.302;2022-09-28T17:31:25;10.10;99.90
35796;DHT22;21916;52.428;13.302;2022-09-28T17:33:52;10.00;99.90
35796;DHT22;21916;52.428;13.302;2022-09-28T17:36:19;10.00;99.90
35796;DHT22;21916;52.428;13.302;2022-09-28T17:38:46;10.10;99.90
35796;DHT22;21916;52.428;13.302;2022-09-28T17:41:15;10.10;99.90
35796;DHT22;21916;52.428;13.302;2022-09-28T17:43:42;10.10;99.90
35796;DHT22;21916;52.428;13.302;2022-09-28T17:46:20;10.00;99.90
35796;DHT22;21916;52.428;13.302;2022-09-28T17:48:48;10.00;99.90
35796;DHT22;21916;52.428;13.302;2022-09-28T17:51:14;10.10;99.90
35796;DHT22;21916;52.428;13.302;2022-09-28T17:53:40;10.10;99.90
35796;DHT22;21916;52.428;13.302;2022-09-28T17:56:06;10.20;99.90
35796;DHT22;21916;52.428;13.302;2022-09-28T17:58:32;10.20;99.90
35796;DHT22;21916;52.428;13.302;2022-09-28T18:00:58;10.10;99.90
35796;DHT22;21916;52.428;13.302;2022-09-28T18:03:24;10.10;99.90
35796;DHT22;21916;52.428;13.302;2022-09-28T18:06:04;10.00;99.90
35796;DHT22;21916;52.428;13.302;2022-09-28T18:08:31;10.10;99.90
35796;DHT22;21916;52.428;13.302;2022-09-28T18:10:58;10.10;99.90
35796;DHT22;21916;52.428;13.302;2022-09-28T18:13:26;10.00;99.90
35796;DHT22;21916;52.428;13.302;2022-09-28T18:15:53;10.00;99.90
35796;DHT22;21916;52.428;13.302;2022-09-28T18:18:21;10.00;99.90
35796;DHT22;21916;52.428;13.302;2022-09-28T18:20:47;10.00;99.90
35796;DHT22;21916;52.428;13.302;2022-09-28T18:23:13;10.10;99.90
35796;DHT22;21916;52.428;13.302;2022-09-28T18:25:43;10.00;99.90
35796;DHT22;21916;52.428;13.302;2022-09-28T18:28:10;10.10;99.90
35796;DHT22;21916;52.428;13.302;2022-09-28T18:30:41;10.00;99.90
35796;DHT22;21916;52.428;13.302;2022-09-28T18:33:07;10.10;99.90
35796;DHT22;21916;52.428;13.302;2022-09-28T18:35:34;10.00;99.90
35796;DHT22;21916;52.428;13.302;2022-09-28T18:38:00;10.00;99.90
35796;DHT22;21916;52.428;13.302;2022-09-28T18:40:26;10.00;99.90
35796;DHT22;21916;52.428;13.302;2022-09-28T18:42:53;10.00;99.90
35796;DHT22;21916;52.428;13.302;2022-09-28T18:45:19;10.10;99.90
35796;DHT22;21916;52.428;13.302;2022-09-28T18:47:45;10.10;99.90
35796;DHT22;21916;52.428;13.302;2022-09-28T18:50:14;10.10;99.90
35796;DHT22;21916;52.428;13.302;2022-09-28T18:52:43;10.00;99.90
35796;DHT22;21916;52.428;13.302;2022-09-28T18:55:10;10.10;99.90
35796;DHT22;21916;52.428;13.302;2022-09-28T18:57:37;10.00;99.90
35796;DHT22;21916;52.428;13.302;2022-09-28T19:00:09;10.00;99.90
35796;DHT22;21916;52.428;13.302;2022-09-28T19:02:36;9.90;99.90
35796;DHT22;21916;52.428;13.302;2022-09-28T19:05:03;9.80;99.90
35796;DHT22;21916;52.428;13.302;2022-09-28T19:07:31;9.80;99.90
35796;DHT22;21916;52.428;13.302;2022-09-28T19:09:57;9.80;99.90
35796;DHT22;21916;52.428;13.302;2022-09-28T19:12:23;9.80;99.90
35796;DHT22;21916;52.428;13.302;2022-09-28T19:14:50;9.80;99.90
35796;DHT22;21916;52.428;13.302;2022-09-28T19:17:15;9.80;99.90
35796;DHT22;21916;52.428;13.302;2022-09-28T19:19:42;9.80;99.90
35796;DHT22;21916;52.428;13.302;2022-09-28T19:22:08;9.90;99.90
35796;DHT22;21916;52.428;13.302;2022-09-28T19:24:34;9.90;99.90
35796;DHT22;21916;52.428;13.302;2022-09-28T19:27:01;9.70;99.90
35796;DHT22;21916;52.428;13.302;2022-09-28T19:29:27;9.70;99.90
35796;DHT22;21916;52.428;13.302;2022-09-28T19:31:52;9.50;99.90